Meteo Giornale » Osservazioni meteo Stati Uniti (USA) » Tonopah
ore: 13:56 - Osservazioni Meteo Tonopah
Lat. 38° 3' N Lon. 117° 5' W Alt. 1654 metri s.l.m.
28 °C
Poco Nuvoloso
Temp. 24 Ore
14 °C
29 °C
Sud/Sud-Ovest
24 Km/h
Dew point 1 °C
Umidità 17 %
Visibilità 10 Km
Il sole sorge alle ore 06:17
Il sole tramonta alle ore 19:19
| Data e Ora | Cielo e Fenomeni | T °C | DP °C | Um. % | Pres. hPa | Vis. km | Vento km/h | |
|---|---|---|---|---|---|---|---|---|
| Oggi h: 13:56 | Poco Nuvoloso | 28 | 1 | 17 | 1016 | 10 | S/SO 24 | |
| Oggi h: 12:56 | Sereno | 28 | 0 | 16 | 1017 | 10 | S/SE 27.8 | |
| Oggi h: 11:56 | Sereno | 28 | 2 | 18 | 1018 | 10 | S 29.6 | |
| Oggi h: 10:56 | Sereno | 25 | 3 | 23 | 1019 | 10 | N 11.1 | |
| Oggi h: 09:56 | Sereno | 23 | 3 | 26 | 1019 | 10 | SE 16.7 | |
| Oggi h: 08:56 | Sereno | 21 | 0 | 24 | 1019 | 10 | N 0 | |
| Oggi h: 07:56 | Sereno | 16 | -3 | 26 | 1019 | 11 | N 9.3 | |
| Oggi h: 06:56 | Sereno | 14 | -3 | 30 | 1018 | 10 | N 16.7 | |
| Oggi h: 05:56 | Poco Nuvoloso | 15 | -3 | 28 | 1018 | 10 | N 16.7 | |
| Oggi h: 04:56 | Sereno | 15 | -3 | 28 | 1018 | 10 | N 16.7 | |
| Oggi h: 03:56 | Sereno | 14 | -3 | 30 | 1018 | 10 | N/NO 14.8 | |
| Oggi h: 02:56 | Sereno | 14 | -4 | 28 | 1018 | 10 | N 16.7 | |
| Oggi h: 01:56 | Sereno | 15 | -2 | 30 | 1018 | 10 | N 13 | |
| Oggi h: 00:56 | Sereno | 17 | -2 | 27 | 1018 | 10 | NO 9.3 | |
| Ieri h: 23:56 | Sereno | 18 | -2 | 25 | 1018 | 10 | E 11.1 | |
| Ieri h: 22:56 | Sereno | 19 | -2 | 24 | 1018 | 10 | E 11.1 | |
| Ieri h: 21:56 | Sereno | 22 | -2 | 19 | 1018 | 10 | S/SO 13 | |
| Ieri h: 20:56 | Sereno | 24 | -2 | 17 | 1017 | 10 | S 16.7 | |
| Ieri h: 19:56 | Sereno | 24 | -6 | 13 | 1016 | 10 | N 5.5 | |
| Ieri h: 18:56 | Sereno | 28 | -5 | 11 | 1016 | 10 | N 5.5 | |
| Ieri h: 17:56 | Sereno | 29 | -6 | 9 | 1016 | 10 | O/SO 16.7 | |
| Ieri h: 16:56 | Sereno | 28 | -7 | 9 | 1017 | 10 | E 9.3 | |
| Ieri h: 15:56 | Sereno | 29 | -4 | 11 | 1017 | 10 | N 5.5 | |



